Aquadonna — A8TW9 — position and weather

sailwx.info

Track history (hours):
 
Tides and Currents Weather Stations Pressure Air Temp Water Temp Dewpoint Dewpoint Depression Visibility Wind Speed Wind Dir Waves Ship Positions

Aquadonna

Last reported at 2015-Jan-23 22:33 UTC. Time now 2015-Apr-22 03:47 UTC.
Position N 01°51' E 102°27'.
Warning: this ship's position is months out of date.

Length 280 m; draft 8.6 m.

Type: Cargo ship. MMSI: 636014449.

Date/timePositionNaut miles runAvg speedWind from/ knotsBaromVisibWave heightAir tempDewpointWater temp
2015-Jan-23 22:33N 01°51' E 102°27'2014.7
2015-Jan-23 21:10N 01°43' E 102°45'7012.4
2015-Jan-23 15:31N 01°10' E 103°47'1212.9
2015-Jan-23 14:33N 01°15' E 103°59'3 1.4
2015-Jan-23 12:10N 01°17' E 104°02'0 0.0
2015-Jan-23 11:19N 01°17' E 104°02'0 0.1
2015-Jan-23 10:28N 01°17' E 104°02'0 0.1
2015-Jan-23 09:22N 01°17' E 104°02'0 0.0
2015-Jan-23 08:16N 01°17' E 104°02'0 0.1
2015-Jan-23 07:10N 01°17' E 104°01'0 0.1
2015-Jan-23 06:28N 01°17' E 104°01'0 0.1
2015-Jan-23 05:28N 01°17' E 104°01'0 0.1
2015-Jan-23 04:28N 01°17' E 104°01'0 0.0
2015-Jan-23 02:22N 01°17' E 104°01'0 0.0
2015-Jan-23 01:04N 01°17' E 104°01'0 0.2
2015-Jan-23 00:31N 01°17' E 104°01'4 4.2
2015-Jan-22 23:31N 01°16' E 103°57'4 4.4
2015-Jan-22 22:33N 01°16' E 104°02'8 7.4
2015-Jan-22 21:32N 01°17' E 104°09'7 6.8
2015-Jan-22 20:29N 01°18' E 104°16'  
2015-Jan-15 16:26N 31°05' E 122°31'8 9.6
2015-Jan-15 15:34N 31°06' E 122°22'1414.1
2015-Jan-15 14:33N 31°13' E 122°07'1414.4
2015-Jan-15 13:33N 31°16' E 121°51'1211.7
2015-Jan-15 12:33N 31°21' E 121°39'8 8.4
2015-Jan-15 11:34N 31°25' E 121°30'5 5.1
2015-Jan-15 10:34N 31°29' E 121°26'9 8.6
2015-Jan-15 09:34N 31°35' E 121°18'1111.0
2015-Jan-15 08:34N 31°42' E 121°09'0 0.3
2015-Jan-15 07:31N 31°42' E 121°09'0 0.0
2015-Jan-15 06:29N 31°42' E 121°09'0 0.0
2015-Jan-15 05:31N 31°42' E 121°09'0 0.0
2015-Jan-15 04:26N 31°42' E 121°09'0 0.0
2015-Jan-15 03:31N 31°42' E 121°09'0 0.0
2015-Jan-15 02:31N 31°42' E 121°09'0 0.0
2015-Jan-15 01:19N 31°42' E 121°09'0 0.0
2015-Jan-15 00:25N 31°42' E 121°09'0 0.0
2015-Jan-14 23:29N 31°42' E 121°09'0 0.0
2015-Jan-14 22:31N 31°42' E 121°09'0 0.0
2015-Jan-14 21:32N 31°42' E 121°09'0 0.0
2015-Jan-14 20:31N 31°42' E 121°09'0 0.0
2015-Jan-14 19:29N 31°42' E 121°09'0 0.0
2015-Jan-14 18:31N 31°42' E 121°09'0 0.0
2015-Jan-14 17:32N 31°42' E 121°09'0 0.0
2015-Jan-14 16:25N 31°42' E 121°09'0 0.0
2015-Jan-14 15:31N 31°42' E 121°09'0 0.0
2015-Jan-14 14:31N 31°42' E 121°09'0 0.0
2015-Jan-14 13:32N 31°42' E 121°09'0 0.0
2015-Jan-14 12:33N 31°42' E 121°09'0 0.0
2015-Jan-14 11:32N 31°42' E 121°09'0 0.0
2015-Jan-14 10:31N 31°42' E 121°09'0 0.0
2015-Jan-14 09:31N 31°42' E 121°09'0 0.0
2015-Jan-14 08:32N 31°42' E 121°09'0 0.0
2015-Jan-14 07:31N 31°42' E 121°09'0 0.0
2015-Jan-14 06:31N 31°42' E 121°09'0 0.0
2015-Jan-14 05:31N 31°42' E 121°09'0 0.0
2015-Jan-14 04:32N 31°42' E 121°09'0 0.0
2015-Jan-14 03:23N 31°42' E 121°09'0 0.0
2015-Jan-14 02:32N 31°42' E 121°09'0 0.0
2015-Jan-14 01:26N 31°42' E 121°09'0 0.0
2015-Jan-14 00:29N 31°42' E 121°09'0 0.0
2015-Jan-13 23:29N 31°42' E 121°09'  
Track history (hours):
 
Tides and Currents Weather Stations Pressure Air Temp Water Temp Dewpoint Dewpoint Depression Visibility Wind Speed Wind Dir Waves Ship Positions

Aquadonna

Last reported at 2015-Jan-23 22:33 UTC. Time now 2015-Apr-22 03:47 UTC.
Position N 01°51' E 102°27'.
Warning: this ship's position is months out of date.

Length 280 m; draft 8.6 m.

Type: Cargo ship. MMSI: 636014449.

Date/timePositionNaut miles runAvg speedWind from/ knotsBaromVisibWave heightAir tempDewpointWater temp
2015-Jan-23 22:33N 01°51' E 102°27'2014.7
2015-Jan-23 21:10N 01°43' E 102°45'7012.4
2015-Jan-23 15:31N 01°10' E 103°47'1212.9
2015-Jan-23 14:33N 01°15' E 103°59'3 1.4
2015-Jan-23 12:10N 01°17' E 104°02'0 0.0
2015-Jan-23 11:19N 01°17' E 104°02'0 0.1
2015-Jan-23 10:28N 01°17' E 104°02'0 0.1
2015-Jan-23 09:22N 01°17' E 104°02'0 0.0
2015-Jan-23 08:16N 01°17' E 104°02'0 0.1
2015-Jan-23 07:10N 01°17' E 104°01'0 0.1
2015-Jan-23 06:28N 01°17' E 104°01'0 0.1
2015-Jan-23 05:28N 01°17' E 104°01'0 0.1
2015-Jan-23 04:28N 01°17' E 104°01'0 0.0
2015-Jan-23 02:22N 01°17' E 104°01'0 0.0
2015-Jan-23 01:04N 01°17' E 104°01'0 0.2
2015-Jan-23 00:31N 01°17' E 104°01'4 4.2
2015-Jan-22 23:31N 01°16' E 103°57'4 4.4
2015-Jan-22 22:33N 01°16' E 104°02'8 7.4
2015-Jan-22 21:32N 01°17' E 104°09'7 6.8
2015-Jan-22 20:29N 01°18' E 104°16'  
2015-Jan-15 16:26N 31°05' E 122°31'8 9.6
2015-Jan-15 15:34N 31°06' E 122°22'1414.1
2015-Jan-15 14:33N 31°13' E 122°07'1414.4
2015-Jan-15 13:33N 31°16' E 121°51'1211.7
2015-Jan-15 12:33N 31°21' E 121°39'8 8.4
2015-Jan-15 11:34N 31°25' E 121°30'5 5.1
2015-Jan-15 10:34N 31°29' E 121°26'9 8.6
2015-Jan-15 09:34N 31°35' E 121°18'1111.0
2015-Jan-15 08:34N 31°42' E 121°09'0 0.3
2015-Jan-15 07:31N 31°42' E 121°09'0 0.0
2015-Jan-15 06:29N 31°42' E 121°09'0 0.0
2015-Jan-15 05:31N 31°42' E 121°09'0 0.0
2015-Jan-15 04:26N 31°42' E 121°09'0 0.0
2015-Jan-15 03:31N 31°42' E 121°09'0 0.0
2015-Jan-15 02:31N 31°42' E 121°09'0 0.0
2015-Jan-15 01:19N 31°42' E 121°09'0 0.0
2015-Jan-15 00:25N 31°42' E 121°09'0 0.0
2015-Jan-14 23:29N 31°42' E 121°09'0 0.0
2015-Jan-14 22:31N 31°42' E 121°09'0 0.0
2015-Jan-14 21:32N 31°42' E 121°09'0 0.0
2015-Jan-14 20:31N 31°42' E 121°09'0 0.0
2015-Jan-14 19:29N 31°42' E 121°09'0 0.0
2015-Jan-14 18:31N 31°42' E 121°09'0 0.0
2015-Jan-14 17:32N 31°42' E 121°09'0 0.0
2015-Jan-14 16:25N 31°42' E 121°09'0 0.0
2015-Jan-14 15:31N 31°42' E 121°09'0 0.0
2015-Jan-14 14:31N 31°42' E 121°09'0 0.0
2015-Jan-14 13:32N 31°42' E 121°09'0 0.0
2015-Jan-14 12:33N 31°42' E 121°09'0 0.0
2015-Jan-14 11:32N 31°42' E 121°09'0 0.0
2015-Jan-14 10:31N 31°42' E 121°09'0 0.0
2015-Jan-14 09:31N 31°42' E 121°09'0 0.0
2015-Jan-14 08:32N 31°42' E 121°09'0 0.0
2015-Jan-14 07:31N 31°42' E 121°09'0 0.0
2015-Jan-14 06:31N 31°42' E 121°09'0 0.0
2015-Jan-14 05:31N 31°42' E 121°09'0 0.0
2015-Jan-14 04:32N 31°42' E 121°09'0 0.0
2015-Jan-14 03:23N 31°42' E 121°09'0 0.0
2015-Jan-14 02:32N 31°42' E 121°09'0 0.0
2015-Jan-14 01:26N 31°42' E 121°09'0 0.0
2015-Jan-14 00:29N 31°42' E 121°09'0 0.0
2015-Jan-13 23:29N 31°42' E 121°09'  

Dump ship's entire track history